Terminal Aerodrome Forecast
Issued by NWS Goodland, KS

Home | Current Version | Previous Version | Text Only | Print | Product List | Glossary On
Versions: 1 2 3 4 5 6 7 8 9 10 11 12 13 14 15 16 17 18
000
FTUS43 KGLD 191752
TAFGLD
TAF
KGLD 191752Z 1918/2018 19015G25KT P6SM FEW100
     FM192300 19009KT P6SM FEW100 FEW200
     FM201100 21006KT P6SM FEW200=

USA.gov is the U.S. government's official web portal to all federal, state and local government web resources and services.